Time;durP1;ratioP1;P1;durP2;ratioP2;P2;SDS_P1;SDS_P2;PMS_P1;PMS_P2;Temp;Humidity;BMP_temperature;BMP_pressure;BME280_temperature;BME280_humidity;BME280_pressure;Samples;Min_cycle;Max_cycle;Signal;HPM_P1;HPM_P2
2022/08/15 00:00:50;;;;;;;3.35;3.05;;;27.00;54.30;;;;;;5093645;28;20024;-55
2022/08/15 00:03:17;;;;;;;3.58;2.80;;;26.90;54.10;;;;;;5093631;28;20021;-56
2022/08/15 00:05:43;;;;;;;3.70;3.40;;;;;;;;;;5093345;28;20050;-55
2022/08/15 00:08:10;;;;;;;3.45;3.10;;;26.70;89.30;;;;;;5093483;28;20467;-55
2022/08/15 00:10:36;;;;;;;3.17;2.97;;;;;;;;;;5093518;28;20028;-55
2022/08/15 00:13:13;;;;;;;3.20;2.90;;;26.90;54.00;;;;;;5093524;28;20063;-55
2022/08/15 00:15:39;;;;;;;2.97;2.75;;;26.70;89.50;;;;;;5093457;28;20063;-54
2022/08/15 00:18:05;;;;;;;3.35;2.88;;;26.50;62.00;;;;;;5093269;28;20064;-55
2022/08/15 00:20:31;;;;;;;2.80;2.60;;;;;;;;;;5093313;28;20032;-54
2022/08/15 00:22:57;;;;;;;2.97;2.53;;;;;;;;;;5093297;28;20031;-55
2022/08/15 00:25:23;;;;;;;3.30;3.00;;;27.10;89.90;;;;;;5093267;28;20073;-55
2022/08/15 00:27:49;;;;;;;2.67;2.47;;;;;;;;;;5093211;28;20358;-55
2022/08/15 00:30:15;;;;;;;2.80;2.50;;;;;;;;;;5093247;28;20501;-56
2022/08/15 00:32:40;;;;;;;2.80;2.60;;;27.40;83.30;;;;;;5093132;28;20044;-55
2022/08/15 00:37:55;;;;;;;3.20;2.90;;;26.60;89.20;;;;;;5092922;28;20505;-56
2022/08/15 00:40:23;;;;;;;2.60;2.40;;;27.00;54.00;;;;;;5092913;28;20110;-55
2022/08/15 00:42:49;;;;;;;4.72;2.65;;;;;;;;;;5092895;28;20042;-55
2022/08/15 00:45:15;;;;;;;3.30;3.00;;;;;;;;;;5092898;28;20406;-55
2022/08/15 00:47:41;;;;;;;3.35;2.50;;;27.10;65.60;;;;;;5092871;28;20024;-56
2022/08/15 00:50:11;;;;;;;2.72;2.53;;;27.10;89.60;;;;;;5093105;28;20062;-55
2022/08/15 00:52:37;;;;;;;;;;;27.10;54.70;;;;;;5093148;28;20029;-56
2022/08/15 00:55:10;;;;;;;3.38;3.08;;;27.20;54.10;;;;;;5092609;28;19973;-55
2022/08/15 00:57:40;;;;;;;3.67;2.90;;;27.30;89.80;;;;;;5092487;28;20071;-55
2022/08/15 01:00:17;;;;;;;4.30;3.28;;;27.20;54.20;;;;;;5092604;28;20024;-52
2022/08/15 01:02:44;;;;;;;3.38;3.08;;;27.10;51.70;;;;;;5092712;28;20024;-55
2022/08/15 01:05:12;;;;;;;3.08;2.78;;;27.10;54.10;;;;;;5092590;28;20024;-55
2022/08/15 01:07:38;;;;;;;2.95;2.70;;;;;;;;;;5092663;28;20031;-55
2022/08/15 01:10:06;;;;;;;3.22;2.92;;;27.10;54.10;;;;;;5092705;28;20032;-54
2022/08/15 01:12:33;;;;;;;3.40;3.20;;;;;;;;;;5092483;28;20031;-55
2022/08/15 01:15:05;;;;;;;3.00;2.80;;;27.00;52.20;;;;;;5092416;28;20099;-52
2022/08/15 01:17:32;;;;;;;2.92;2.53;;;27.20;54.20;;;;;;5091697;28;20034;-54
2022/08/15 01:20:05;;;;;;;3.50;2.85;;;27.20;54.20;;;;;;5092427;28;20036;-55
2022/08/15 01:22:50;;;;;;;2.78;2.58;;;27.40;52.30;;;;;;5092418;28;20074;-54
2022/08/15 01:25:35;;;;;;;3.03;2.72;;;26.70;89.20;;;;;;5092466;28;20031;-54
2022/08/15 01:28:08;;;;;;;3.00;2.80;;;26.70;89.20;;;;;;5092381;28;20105;-55
2022/08/15 01:30:42;;;;;;;3.10;2.90;;;26.90;89.50;;;;;;5092250;28;20213;-52
2022/08/15 01:33:08;;;;;;;3.35;3.00;;;27.10;89.80;;;;;;5092284;28;20039;-55
2022/08/15 01:35:34;;;;;;;3.28;2.80;;;;;;;;;;5091434;28;20060;-54
2022/08/15 01:38:03;;;;;;;3.20;2.85;;;27.20;53.80;;;;;;5092178;28;20115;-54
2022/08/15 01:40:32;;;;;;;3.03;2.50;;;27.50;89.80;;;;;;5092243;28;20016;-55
2022/08/15 01:42:58;;;;;;;2.90;2.70;;;;;;;;;;5092290;28;20032;-55
2022/08/15 01:45:27;;;;;;;2.83;2.50;;;27.20;53.90;;;;;;5092203;28;20054;-55
2022/08/15 01:48:16;;;;;;;2.63;2.43;;;27.20;79.90;;;;;;5092132;28;20478;-55
2022/08/15 01:50:49;;;;;;;2.97;2.50;;;27.60;90.00;;;;;;5092216;28;20401;-55
2022/08/15 01:53:24;;;;;;;2.45;2.25;;;27.60;89.90;;;;;;5092112;28;20028;-54
2022/08/15 01:55:57;;;;;;;2.60;2.40;;;27.20;53.70;;;;;;5091961;28;20030;-53
2022/08/15 01:58:23;;;;;;;3.08;2.78;;;27.30;52.40;;;;;;5091958;28;20101;-52
2022/08/15 02:01:00;;;;;;;2.67;2.47;;;27.20;53.90;;;;;;5092086;28;20030;-56
2022/08/15 02:03:33;;;;;;;3.20;2.72;;;;;;;;;;5092096;28;20070;-54
2022/08/15 02:06:13;;;;;;;2.80;2.50;;;27.20;89.40;;;;;;5092273;28;20032;-55
2022/08/15 02:08:40;;;;;;;2.70;2.50;;;27.30;54.00;;;;;;5091981;28;20025;-55
2022/08/15 02:11:14;;;;;;;2.72;2.53;;;27.30;53.90;;;;;;5091944;28;20119;-55
2022/08/15 02:13:41;;;;;;;3.05;2.70;;;27.50;89.30;;;;;;5091925;28;20025;-55
2022/08/15 02:16:07;;;;;;;2.85;2.65;;;;;;;;;;5091890;28;20027;-54
2022/08/15 02:18:33;;;;;;;3.03;2.67;;;;;;;;;;5091819;28;20040;-55
2022/08/15 02:20:59;;;;;;;2.53;2.33;;;;;;;;;;5091958;28;20382;-54
2022/08/15 02:23:26;;;;;;;3.22;2.65;;;27.30;53.90;;;;;;5091807;28;20067;-55
2022/08/15 02:25:54;;;;;;;2.50;2.30;;;27.60;89.60;;;;;;5091817;28;20027;-55
2022/08/15 02:28:20;;;;;;;2.80;2.60;;;27.40;52.20;;;;;;5093418;28;20056;-56
2022/08/15 02:30:47;;;;;;;2.65;2.45;;;;;;;;;;5095386;28;20390;-55
2022/08/15 02:33:13;;;;;;;2.75;2.33;;;27.70;89.70;;;;;;5095427;28;20020;-54
2022/08/15 02:35:40;;;;;;;2.72;2.53;;;;;;;;;;5095550;28;20028;-55
2022/08/15 02:38:06;;;;;;;2.50;2.30;;;;;;;;;;5095262;28;20493;-55
2022/08/15 02:40:34;;;;;;;2.70;2.50;;;27.40;54.00;;;;;;5095316;28;20043;-55
2022/08/15 02:43:04;;;;;;;2.95;2.63;;;27.60;89.70;;;;;;5095154;28;20035;-55
2022/08/15 02:45:34;;;;;;;2.80;2.60;;;27.40;89.60;;;;;;5095223;28;20479;-53
2022/08/15 02:48:00;;;;;;;2.60;2.33;;;27.70;89.80;;;;;;5095230;28;20028;-55
2022/08/15 02:50:26;;;;;;;2.53;2.30;;;27.70;89.90;;;;;;5076902;28;20022;-53
2022/08/15 02:52:51;;;;;;;2.67;2.20;;;27.70;89.80;;;;;;5095112;28;20107;-55
2022/08/15 02:55:19;;;;;;;3.65;2.55;;;;;;;;;;5094945;28;20077;-53
2022/08/15 02:57:45;;;;;;;2.03;1.92;;;;;;;;;;5076532;28;20498;-54
2022/08/15 03:00:15;;;;;;;2.42;2.08;;;27.60;65.40;;;;;;5094828;28;20119;-53
2022/08/15 03:03:07;;;;;;;;;;;27.30;53.10;;;;;;5095573;28;20023;-55
2022/08/15 03:05:35;;;;;;;3.97;2.58;;;27.20;53.70;;;;;;5089751;28;19999;-55
2022/08/15 03:08:01;;;;;;;3.35;2.38;;;;;;;;;;5094805;28;20438;-55
2022/08/15 03:10:28;;;;;;;2.50;2.30;;;27.70;89.50;;;;;;5094769;28;20470;-55
2022/08/15 03:12:57;;;;;;;2.50;2.30;;;27.80;89.80;;;;;;5094683;28;20094;-54
2022/08/15 03:15:25;;;;;;;2.50;2.30;;;27.30;53.90;;;;;;5094694;28;20504;-56
2022/08/15 03:17:52;;;;;;;2.42;2.22;;;27.70;89.70;;;;;;5094391;28;20375;-55
2022/08/15 03:20:19;;;;;;;2.60;2.40;;;27.40;51.30;;;;;;5094519;28;20046;-56
2022/08/15 03:22:46;;;;;;;2.55;2.35;;;27.30;53.80;;;;;;5094694;28;20043;-55
2022/08/15 03:25:13;;;;;;;2.80;2.28;;;;;;;;;;5094354;28;20449;-57
2022/08/15 03:27:40;;;;;;;2.28;2.10;;;;;;;;;;5094272;28;20402;-57
2022/08/15 03:30:09;;;;;;;2.30;2.10;;;27.60;89.60;;;;;;5094374;28;20024;-57
2022/08/15 03:32:42;;;;;;;2.65;2.00;;;27.00;71.00;;;;;;5094238;28;20032;-56
2022/08/15 03:35:09;;;;;;;2.47;2.28;;;27.60;89.70;;;;;;5094350;28;20032;-57
2022/08/15 03:37:35;;;;;;;2.83;2.20;;;;;;;;;;5094074;28;20050;-57
2022/08/15 03:40:01;;;;;;;2.45;2.25;;;;;;;;;;5093730;28;20142;-56
2022/08/15 03:42:27;;;;;;;3.30;2.25;;;;;;;;;;5094072;28;20036;-57
2022/08/15 03:44:53;;;;;;;2.30;2.05;;;;;;;;;;5094022;28;20040;-56
2022/08/15 03:47:21;;;;;;;3.65;2.35;;;;;;;;;;5093977;28;20027;-56
2022/08/15 03:49:47;;;;;;;2.70;2.10;;;27.70;89.60;;;;;;5093943;28;20052;-56
2022/08/15 03:52:13;;;;;;;2.13;1.95;;;27.50;89.40;;;;;;5094024;28;20020;-56
2022/08/15 03:54:39;;;;;;;2.63;2.10;;;27.40;89.30;;;;;;5093764;28;20364;-56
2022/08/15 03:57:08;;;;;;;1.92;1.83;;;27.70;89.40;;;;;;5093679;28;20074;-57
2022/08/15 03:59:34;;;;;;;2.15;2.05;;;27.80;89.70;;;;;;5093630;28;20048;-56
2022/08/15 04:06:19;;;;;;;4.57;2.13;;;27.30;89.40;;;;;;5060145;28;20024;-54
2022/08/15 04:08:47;;;;;;;2.30;2.10;;;27.40;51.80;;;;;;5053507;28;20029;-52
2022/08/15 04:11:14;;;;;;;2.42;2.30;;;27.80;89.80;;;;;;5053458;28;20021;-52
2022/08/15 04:13:40;;;;;;;2.25;1.90;;;27.80;89.50;;;;;;5053386;28;20033;-52
2022/08/15 04:16:07;;;;;;;2.20;2.00;;;26.90;88.80;;;;;;5053274;28;20443;-54
2022/08/15 04:18:34;;;;;;;1.98;1.88;;;27.50;62.10;;;;;;5052932;28;20124;-54
2022/08/15 04:21:01;;;;;;;2.10;2.00;;;27.50;54.20;;;;;;5053078;28;20024;-52
2022/08/15 04:23:28;;;;;;;2.35;2.15;;;;;;;;;;5052836;28;20128;-53
2022/08/15 04:25:54;;;;;;;2.10;1.90;;;;;;;;;;5052965;28;20056;-53
2022/08/15 04:28:21;;;;;;;2.17;1.83;;;27.40;53.60;;;;;;5035259;28;20055;-55
2022/08/15 04:30:48;;;;;;;1.80;1.70;;;27.40;53.80;;;;;;5052880;28;20491;-53
2022/08/15 04:33:19;;;;;;;3.05;2.30;;;27.80;54.00;;;;;;5053075;28;20438;-53
2022/08/15 04:35:47;;;;;;;2.88;1.95;;;27.40;89.20;;;;;;5053145;28;20021;-51
2022/08/15 04:38:14;;;;;;;1.88;1.77;;;27.40;52.90;;;;;;5052702;28;20479;-52
2022/08/15 04:40:41;;;;;;;2.60;1.85;;;;;;;;;;5052642;28;20037;-53
2022/08/15 04:43:07;;;;;;;2.13;1.92;;;;;;;;;;5052669;28;20013;-54
2022/08/15 04:45:34;;;;;;;2.15;1.95;;;27.80;89.60;;;;;;5052539;28;20043;-51
2022/08/15 04:48:04;;;;;;;2.42;1.98;;;27.40;52.60;;;;;;5052559;28;20079;-52
2022/08/15 04:50:36;;;;;;;3.47;1.70;;;27.30;55.50;;;;;;5052557;28;20048;-54
2022/08/15 04:53:04;;;;;;;3.67;1.88;;;27.40;53.90;;;;;;5051942;28;20074;-52
2022/08/15 04:55:30;;;;;;;2.10;1.90;;;;;;;;;;5052663;28;20025;-54
2022/08/15 04:57:57;;;;;;;2.20;2.00;;;27.40;53.80;;;;;;5052275;28;20044;-55
2022/08/15 05:00:27;;;;;;;2.00;1.80;;;27.40;54.00;;;;;;5052173;28;20028;-52
2022/08/15 05:03:03;;;;;;;1.50;1.42;;;27.50;89.00;;;;;;5051987;28;20044;-53
2022/08/15 05:05:31;;;;;;;1.88;1.75;;;27.40;53.90;;;;;;5052219;28;20037;-52
2022/08/15 05:07:56;;;;;;;2.65;1.83;;;27.80;89.70;;;;;;5052280;28;20032;-51
2022/08/15 05:10:22;;;;;;;1.73;1.63;;;27.10;89.20;;;;;;5052193;28;20379;-55
2022/08/15 05:12:48;;;;;;;2.22;1.90;;;;;;;;;;5052223;28;20033;-55
2022/08/15 05:15:16;;;;;;;2.00;1.80;;;27.40;53.80;;;;;;5052252;28;20025;-52
2022/08/15 05:17:42;;;;;;;1.60;1.50;;;;;;;;;;5052003;28;20824;-53
2022/08/15 05:20:08;;;;;;;2.45;1.85;;;27.20;52.40;;;;;;5052115;28;20072;-52
2022/08/15 05:22:34;;;;;;;1.65;1.50;;;;;;;;;;5052097;28;20045;-54
2022/08/15 05:25:01;;;;;;;2.88;1.60;;;;;;;;;;5052133;28;20433;-53
2022/08/15 05:27:27;;;;;;;2.13;1.75;;;;;;;;;;5052016;28;20029;-52
2022/08/15 05:29:53;;;;;;;2.97;1.77;;;;;;;;;;5051664;28;20029;-54
2022/08/15 05:32:20;;;;;;;2.20;1.35;;;27.50;53.90;;;;;;5033991;28;20029;-52
2022/08/15 05:34:47;;;;;;;2.08;1.70;;;27.40;53.60;;;;;;5051955;28;20021;-50
2022/08/15 05:37:14;;;;;;;1.80;1.70;;;27.40;51.60;;;;;;5051937;28;20020;-53
2022/08/15 05:39:40;;;;;;;2.97;1.88;;;;;;;;;;5052018;28;20044;-51
2022/08/15 05:42:12;;;;;;;2.95;2.05;;;27.00;79.10;;;;;;5051780;28;20490;-54
2022/08/15 05:44:43;;;;;;;1.98;1.48;;;27.70;57.60;;;;;;5051761;28;20043;-52
2022/08/15 05:47:30;;;;;;;2.00;1.90;;;27.40;49.30;;;;;;5051788;28;20032;-51
2022/08/15 05:50:06;;;;;;;3.05;2.10;;;27.40;53.70;;;;;;5052056;28;20047;-54
2022/08/15 05:52:34;;;;;;;1.70;1.60;;;27.40;49.20;;;;;;5051824;28;20047;-55
2022/08/15 05:55:29;;;;;;;2.47;1.65;;;24.90;47.80;;;;;;5051727;28;20036;-54
2022/08/15 05:58:22;;;;;;;1.88;1.63;;;27.30;89.60;;;;;;5051633;28;20417;-51
2022/08/15 06:01:14;;;;;;;4.28;1.80;;;27.40;53.60;;;;;;5051687;28;20037;-54
2022/08/15 06:03:46;;;;;;;3.92;1.85;;;27.50;89.50;;;;;;5043218;28;20044;-53
2022/08/15 06:06:15;;;;;;;1.80;1.70;;;27.40;53.80;;;;;;5055677;28;20083;-54
2022/08/15 06:08:47;;;;;;;2.13;1.80;;;27.20;53.90;;;;;;5055591;28;20363;-55
2022/08/15 06:11:20;;;;;;;2.80;1.80;;;27.30;53.80;;;;;;5055626;28;20031;-54
2022/08/15 06:13:46;;;;;;;2.40;1.67;;;;;;;;;;5055461;28;20429;-53
2022/08/15 06:16:36;;;;;;;3.38;1.60;;;27.70;62.80;;;;;;5055654;28;20024;-51
2022/08/15 06:19:06;;;;;;;5.88;2.00;;;27.40;53.80;;;;;;5055285;28;20032;-51
2022/08/15 06:21:41;;;;;;;3.53;2.13;;;26.90;89.20;;;;;;5055233;28;20057;-54
2022/08/15 06:24:29;;;;;;;2.55;1.90;;;27.70;66.70;;;;;;5055225;28;20021;-54
2022/08/15 06:27:19;;;;;;;3.22;2.08;;;27.30;53.70;;;;;;5055402;28;20528;-52
2022/08/15 06:29:50;;;;;;;3.67;1.85;;;27.30;49.30;;;;;;5030306;28;20091;-52
2022/08/15 06:32:32;;;;;;;5.15;2.42;;;27.60;54.00;;;;;;5055557;28;20394;-50
2022/08/15 06:35:04;;;;;;;6.10;2.60;;;27.40;89.60;;;;;;5055325;28;20548;-51
2022/08/15 06:37:42;;;;;;;4.25;2.28;;;28.00;54.00;;;;;;5055058;28;20540;-50
2022/08/15 06:40:20;;;;;;;2.72;1.80;;;27.60;85.70;;;;;;5055038;28;20040;-49
2022/08/15 06:42:46;;;;;;;2.65;2.28;;;;;;;;;;5055139;28;20029;-51
2022/08/15 06:45:25;;;;;;;1.98;1.77;;;27.40;75.80;;;;;;5055085;28;20033;-52
2022/08/15 06:48:04;;;;;;;2.95;2.03;;;27.20;53.90;;;;;;5055179;28;20029;-50
2022/08/15 06:50:53;;;;;;;4.78;2.40;;;27.30;49.60;;;;;;5055213;28;20441;-49
2022/08/15 06:53:26;;;;;;;6.93;2.00;;;27.30;54.10;;;;;;5054788;28;20036;-53
2022/08/15 06:56:02;;;;;;;4.05;2.00;;;27.30;54.50;;;;;;5054814;28;20287;-51
2022/08/15 06:58:42;;;;;;;4.85;2.10;;;27.20;50.10;;;;;;5054598;28;20041;-50
2022/08/15 07:01:32;;;;;;;2.33;2.10;;;27.20;54.80;;;;;;5054514;28;20498;-52
2022/08/15 07:04:22;;;;;;;6.05;2.53;;;27.40;50.50;;;;;;5054345;28;20037;-50
2022/08/15 07:06:48;;;;;;;4.13;2.47;;;;;;;;;;5055059;28;20032;-53
2022/08/15 07:09:48;;;;;;;4.25;2.58;;;27.10;90.20;;;;;;5054673;28;20028;-51
2022/08/15 07:12:14;;;;;;;4.40;2.63;;;;;;;;;;5054705;28;20437;-53
2022/08/15 07:14:40;;;;;;;5.68;2.50;;;;;;;;;;5053351;28;20029;-51
2022/08/15 07:17:15;;;;;;;2.72;2.28;;;27.30;55.80;;;;;;5054272;28;20035;-51
2022/08/15 07:19:41;;;;;;;5.90;2.55;;;26.90;90.60;;;;;;5054317;28;20041;-52
2022/08/15 07:22:09;;;;;;;8.45;2.95;;;;;;;;;;5054307;28;20472;-52
2022/08/15 07:24:35;;;;;;;8.05;3.08;;;27.00;90.90;;;;;;5054352;28;20155;-52
2022/08/15 07:27:03;;;;;;;3.60;2.60;;;26.90;91.00;;;;;;5054327;28;20063;-51
2022/08/15 07:29:35;;;;;;;5.63;2.50;;;27.20;91.00;;;;;;5054200;28;20040;-55
2022/08/15 07:32:22;;;;;;;5.03;2.92;;;27.00;91.00;;;;;;5054192;28;20368;-51
2022/08/15 07:35:09;;;;;;;4.60;2.95;;;27.20;52.30;;;;;;5054158;28;20032;-50
2022/08/15 07:37:37;;;;;;;5.07;3.00;;;27.20;57.20;;;;;;5054075;28;20032;-51
2022/08/15 07:40:32;;;;;;;3.70;2.58;;;26.90;91.10;;;;;;5053996;28;20029;-51
2022/08/15 07:43:01;;;;;;;4.60;2.80;;;27.20;57.30;;;;;;5044730;28;20045;-51
2022/08/15 07:45:39;;;;;;;4.03;2.70;;;27.10;91.20;;;;;;5053892;28;20051;-54
2022/08/15 07:48:23;;;;;;;3.55;3.25;;;27.30;57.50;;;;;;5054153;28;20394;-51
2022/08/15 07:51:16;;;;;;;6.07;3.10;;;27.40;91.50;;;;;;5054023;28;20025;-52
2022/08/15 07:54:03;;;;;;;7.35;3.25;;;26.70;52.60;;;;;;5053716;28;20029;-54
2022/08/15 07:56:30;;;;;;;5.15;3.20;;;27.30;57.50;;;;;;5053939;28;20111;-55
2022/08/15 07:59:13;;;;;;;6.70;3.30;;;27.50;91.30;;;;;;5053832;28;20029;-54
2022/08/15 08:01:39;;;;;;;7.28;3.33;;;;;;;;;;5053314;28;20049;-52
2022/08/15 08:04:11;;;;;;;5.57;3.15;;;27.80;91.70;;;;;;5053552;28;20037;-52
2022/08/15 08:06:59;;;;;;;4.95;3.30;;;27.60;91.70;;;;;;5053519;28;20025;-53
2022/08/15 08:09:40;;;;;;;6.40;3.00;;;27.30;58.00;;;;;;5053491;28;20070;-52
2022/08/15 08:12:19;;;;;;;5.13;3.40;;;27.30;53.50;;;;;;5053914;28;20375;-51
2022/08/15 08:14:55;;;;;;;5.88;2.97;;;27.70;91.80;;;;;;5053271;28;20112;-51
2022/08/15 08:17:31;;;;;;;3.75;2.78;;;27.50;91.70;;;;;;5053621;28;20029;-52
2022/08/15 08:20:28;;;;;;;4.50;3.08;;;27.70;91.90;;;;;;5053212;28;20044;-51
2022/08/15 08:23:04;;;;;;;4.65;3.40;;;27.40;58.50;;;;;;5053216;28;20048;-51
2022/08/15 08:25:51;;;;;;;7.65;3.10;;;27.30;58.30;;;;;;5052888;28;20036;-51
2022/08/15 08:28:29;;;;;;;5.82;3.20;;;27.10;53.60;;;;;;5053087;28;20064;-51
2022/08/15 08:31:02;;;;;;;7.85;3.42;;;27.50;70.70;;;;;;5053038;28;20029;-51
2022/08/15 08:33:39;;;;;;;5.00;3.42;;;27.30;53.80;;;;;;5053052;28;20438;-51
2022/08/15 08:36:38;;;;;;;5.05;3.40;;;27.50;91.90;;;;;;5035108;28;20567;-51
2022/08/15 08:39:26;;;;;;;5.78;3.25;;;27.40;83.50;;;;;;5048879;28;20384;-50
2022/08/15 08:41:52;;;;;;;4.13;2.92;;;;;;;;;;5052734;28;20017;-53
2022/08/15 08:44:50;;;;;;;6.75;3.70;;;27.60;63.40;;;;;;5052701;28;20043;-51
2022/08/15 08:47:22;;;;;;;5.90;3.83;;;27.60;91.70;;;;;;5049037;28;20116;-51
2022/08/15 08:49:48;;;;;;;4.07;2.90;;;;;;;;;;5052942;28;20033;-50
2022/08/15 08:52:43;;;;;;;6.50;3.40;;;27.50;72.30;;;;;;5052680;28;20032;-53
2022/08/15 08:55:23;;;;;;;3.92;3.38;;;27.30;91.80;;;;;;5035369;28;20091;-50
2022/08/15 08:57:52;;;;;;;;;;;27.50;58.80;;;;;;5052823;28;20029;-53
2022/08/15 09:00:21;;;;;;;5.85;3.53;;;27.50;58.50;;;;;;5052447;28;19934;-50
2022/08/15 09:02:52;;;;;;;7.43;3.45;;;27.60;91.90;;;;;;5052218;28;20442;-53
2022/08/15 09:05:26;;;;;;;6.03;3.58;;;26.90;53.50;;;;;;5052635;28;20455;-51
2022/08/15 09:07:58;;;;;;;4.43;3.38;;;27.40;58.40;;;;;;5052634;28;20017;-53
2022/08/15 09:10:32;;;;;;;5.47;3.22;;;27.40;58.40;;;;;;5052431;28;20043;-53
2022/08/15 09:15:48;;;;;;;5.78;3.58;;;27.70;92.00;;;;;;5052714;28;20051;-55
2022/08/15 09:18:34;;;;;;;5.10;3.60;;;27.60;92.00;;;;;;5052300;28;20041;-52
2022/08/15 09:21:00;;;;;;;5.28;3.20;;;;;;;;;;5052295;28;20029;-52
2022/08/15 09:23:41;;;;;;;4.88;3.38;;;27.50;58.30;;;;;;5052153;28;20050;-51
2022/08/15 09:26:13;;;;;;;4.68;3.22;;;27.80;91.70;;;;;;5052199;28;20017;-53
2022/08/15 09:28:43;;;;;;;3.42;2.97;;;27.20;91.50;;;;;;5052159;28;20024;-54
2022/08/15 09:31:09;;;;;;;4.00;3.10;;;;;;;;;;5052520;28;20368;-54
2022/08/15 09:33:56;;;;;;;3.35;2.90;;;27.90;91.60;;;;;;5052067;28;20043;-55
2022/08/15 09:36:22;;;;;;;4.30;3.10;;;;;;;;;;5052092;28;20025;-51
2022/08/15 09:39:31;;;;;;;3.78;3.13;;;27.90;53.30;;;;;;5054670;28;20049;-53
2022/08/15 09:41:59;;;;;;;5.33;3.20;;;28.00;91.40;;;;;;5056307;28;20037;-54
2022/08/15 09:44:54;;;;;;;7.47;3.20;;;28.30;57.70;;;;;;5056198;28;20040;-55
2022/08/15 09:47:59;;;;;;;4.93;3.25;;;28.00;53.00;;;;;;5056177;28;20429;-54
2022/08/15 09:50:49;;;;;;;4.80;2.63;;;28.40;91.40;;;;;;5056196;28;20029;-54
2022/08/15 09:53:17;;;;;;;3.13;2.80;;;;;;;;;;5056010;28;20112;-53
2022/08/15 09:55:46;;;;;;;6.00;3.35;;;27.60;91.00;;;;;;5055977;28;20029;-54
2022/08/15 09:58:25;;;;;;;5.47;3.30;;;28.10;65.80;;;;;;5055904;28;20036;-56
2022/08/15 10:01:14;;;;;;;3.80;3.20;;;28.50;91.10;;;;;;5055798;28;20021;-55
2022/08/15 10:03:46;;;;;;;6.82;3.25;;;28.70;61.00;;;;;;5055758;28;20036;-55
2022/08/15 10:06:23;;;;;;;5.93;3.10;;;28.60;91.20;;;;;;5056032;28;20449;-53
2022/08/15 10:08:54;;;;;;;3.72;2.83;;;28.70;87.60;;;;;;5055740;28;20517;-55
2022/08/15 10:11:32;;;;;;;4.50;2.90;;;28.40;52.00;;;;;;5055584;28;20036;-54
2022/08/15 10:14:06;;;;;;;6.18;3.28;;;28.30;56.80;;;;;;5055945;28;20033;-57
2022/08/15 10:16:40;;;;;;;5.15;3.10;;;28.00;54.60;;;;;;5055956;28;20031;-58
2022/08/15 10:19:27;;;;;;;6.28;3.55;;;28.30;54.50;;;;;;5055440;28;20404;-57
2022/08/15 10:21:55;;;;;;;4.28;3.05;;;;;;;;;;5055753;28;20021;-57
2022/08/15 10:24:21;;;;;;;3.55;2.72;;;;;;;;;;5055500;28;20060;-57
2022/08/15 10:27:22;;;;;;;4.78;3.20;;;28.30;54.20;;;;;;5055606;28;20021;-57
2022/08/15 10:29:52;;;;;;;4.13;3.00;;;28.50;59.40;;;;;;4974188;28;20043;-57
2022/08/15 10:32:35;;;;;;;5.85;3.28;;;28.40;59.20;;;;;;5040639;28;20052;-57
2022/08/15 10:35:23;;;;;;;3.15;2.88;;;28.30;54.00;;;;;;5055226;28;20032;-57
2022/08/15 10:37:51;;;;;;;5.05;3.05;;;;;;;;;;5055109;28;20479;-57
2022/08/15 10:40:40;;;;;;;4.43;3.33;;;28.10;53.70;;;;;;5055148;28;20060;-57
2022/08/15 10:43:44;;;;;;;4.30;3.13;;;28.20;53.60;;;;;;5055084;28;20025;-58
2022/08/15 10:46:49;;;;;;;3.78;3.15;;;28.20;53.60;;;;;;5042777;28;20287;-58
2022/08/15 10:49:33;;;;;;;5.03;2.97;;;27.90;54.50;;;;;;5054879;28;20020;-57
2022/08/15 10:52:01;;;;;;;3.92;3.17;;;;;;;;;;5055185;28;20017;-56
2022/08/15 10:54:42;;;;;;;6.53;3.22;;;28.00;53.60;;;;;;5054865;28;20042;-57
2022/08/15 10:57:10;;;;;;;5.13;3.00;;;28.10;58.90;;;;;;5054813;28;20040;-54
2022/08/15 10:59:45;;;;;;;3.78;3.00;;;28.00;58.80;;;;;;5054671;28;20061;-58
2022/08/15 11:02:41;;;;;;;5.00;3.08;;;28.10;53.70;;;;;;5054419;28;20094;-56
2022/08/15 11:05:11;;;;;;;4.85;3.40;;;28.00;59.10;;;;;;5054600;28;20029;-56
2022/08/15 11:07:40;;;;;;;4.22;3.20;;;28.00;58.60;;;;;;5054581;28;20039;-56
2022/08/15 11:10:14;;;;;;;3.70;3.25;;;27.90;53.70;;;;;;5054545;28;20074;-56
2022/08/15 11:12:46;;;;;;;3.85;2.72;;;27.80;53.60;;;;;;5054511;28;20463;-57
2022/08/15 11:15:25;;;;;;;5.25;2.97;;;27.90;53.70;;;;;;5054466;28;20067;-55
2022/08/15 11:18:03;;;;;;;5.25;3.35;;;27.90;59.00;;;;;;5054432;28;20025;-56
2022/08/15 11:20:42;;;;;;;6.25;3.20;;;27.90;59.00;;;;;;5054364;28;20032;-56
2022/08/15 11:23:09;;;;;;;3.55;3.05;;;;;;;;;;5054558;28;20390;-56
2022/08/15 11:25:37;;;;;;;5.32;3.40;;;27.80;58.60;;;;;;5054187;28;20387;-56
2022/08/15 11:28:03;;;;;;;6.88;3.65;;;;;;;;;;5054168;28;20356;-56
2022/08/15 11:30:34;;;;;;;4.82;3.63;;;28.20;59.00;;;;;;5054114;28;20475;-56
2022/08/15 11:33:19;;;;;;;5.47;3.40;;;27.80;53.50;;;;;;5054185;28;20099;-56
2022/08/15 11:35:45;;;;;;;3.80;3.15;;;;;;;;;;5054419;28;20025;-57
2022/08/15 11:38:15;;;;;;;5.05;3.47;;;27.90;57.60;;;;;;5054003;28;20038;-57
2022/08/15 11:40:42;;;;;;;4.22;3.47;;;;;;;;;;5053964;28;20483;-56
2022/08/15 11:43:13;;;;;;;3.63;3.22;;;28.10;59.00;;;;;;5053996;28;20486;-57
2022/08/15 11:45:43;;;;;;;3.30;3.00;;;27.80;58.80;;;;;;5053921;28;20494;-57
2022/08/15 11:48:17;;;;;;;6.47;3.00;;;27.70;58.70;;;;;;5053841;28;20386;-55
2022/08/15 11:51:14;;;;;;;5.85;3.13;;;27.70;58.40;;;;;;5053833;28;20020;-56
2022/08/15 11:54:12;;;;;;;4.18;3.28;;;27.70;58.60;;;;;;5039390;28;20045;-57
2022/08/15 11:57:01;;;;;;;3.67;3.30;;;27.80;53.40;;;;;;5053628;28;20025;-57
2022/08/15 11:59:37;;;;;;;3.22;2.80;;;27.70;53.10;;;;;;5053653;28;20041;-57
2022/08/15 12:02:21;;;;;;;3.17;2.88;;;27.60;53.30;;;;;;5052820;28;20048;-56
2022/08/15 12:04:49;;;;;;;6.25;3.50;;;27.80;58.60;;;;;;5053793;28;20029;-57
2022/08/15 12:07:28;;;;;;;6.53;3.72;;;27.60;53.10;;;;;;5053508;28;20092;-57
2022/08/15 12:09:56;;;;;;;6.65;4.10;;;27.80;52.80;;;;;;5053507;28;20506;-57
2022/08/15 12:12:40;;;;;;;4.90;3.20;;;27.60;52.70;;;;;;5053260;28;20039;-56
2022/08/15 12:15:06;;;;;;;6.53;3.85;;;;;;;;;;5053359;28;20395;-56
2022/08/15 12:17:32;;;;;;;3.25;2.95;;;;;;;;;;5053315;28;20028;-56
2022/08/15 12:19:59;;;;;;;5.55;3.40;;;;;;;;;;5053033;28;20495;-57
2022/08/15 12:22:30;;;;;;;5.82;3.45;;;27.90;57.80;;;;;;5053234;28;20029;-57
2022/08/15 12:24:56;;;;;;;5.47;3.83;;;;;;;;;;5053286;28;20036;-57
2022/08/15 12:27:22;;;;;;;4.38;3.33;;;;;;;;;;5053011;28;20024;-57
2022/08/15 12:29:48;;;;;;;4.32;3.22;;;;;;;;;;5053089;28;20529;-57
2022/08/15 12:32:14;;;;;;;4.45;3.63;;;;;;;;;;5052986;28;20025;-58
2022/08/15 12:34:44;;;;;;;7.97;3.80;;;27.80;58.30;;;;;;5052920;28;20383;-56
2022/08/15 12:37:23;;;;;;;4.93;3.63;;;27.90;58.40;;;;;;5052983;28;20025;-57
2022/08/15 12:39:55;;;;;;;3.80;3.40;;;27.90;58.60;;;;;;5052875;28;20033;-58
2022/08/15 12:42:30;;;;;;;10.02;3.97;;;27.80;53.00;;;;;;5052798;28;20090;-57
2022/08/15 12:44:58;;;;;;;4.15;3.75;;;27.80;58.10;;;;;;5052764;28;20438;-58
2022/08/15 12:47:28;;;;;;;4.65;3.10;;;27.90;58.20;;;;;;5052682;28;20017;-55
2022/08/15 12:49:54;;;;;;;3.60;3.13;;;;;;;;;;5052935;28;20025;-56
2022/08/15 12:52:21;;;;;;;9.82;3.33;;;;;;;;;;5034753;28;20044;-56
2022/08/15 12:54:48;;;;;;;5.00;3.33;;;28.00;58.30;;;;;;5034766;28;20029;-58
2022/08/15 12:57:14;;;;;;;7.18;3.65;;;;;;;;;;5052580;28;20025;-56
2022/08/15 12:59:41;;;;;;;7.55;4.20;;;;;;;;;;5052370;28;20036;-58
2022/08/15 13:02:08;;;;;;;5.15;3.80;;;28.00;57.30;;;;;;5052225;28;20041;-57
2022/08/15 13:04:35;;;;;;;6.22;3.70;;;;;;;;;;5052431;28;20108;-57
2022/08/15 13:07:01;;;;;;;3.83;3.42;;;;;;;;;;5052723;28;20558;-55
2022/08/15 13:09:31;;;;;;;5.60;3.83;;;27.90;58.20;;;;;;5052548;28;20033;-57
2022/08/15 13:12:00;;;;;;;6.05;3.67;;;;;;;;;;5051936;28;20032;-56
2022/08/15 13:14:26;;;;;;;3.78;3.20;;;;;;;;;;5052158;28;20036;-57
2022/08/15 13:16:53;;;;;;;4.05;3.35;;;27.90;55.00;;;;;;5052250;28;20025;-55
2022/08/15 13:19:22;;;;;;;4.50;3.55;;;28.10;58.40;;;;;;5052171;28;20483;-57
2022/08/15 13:24:33;;;;;;;6.85;3.78;;;27.90;55.80;;;;;;5052786;28;20446;-57
2022/08/15 13:27:00;;;;;;;5.85;4.00;;;28.20;56.60;;;;;;5034306;28;20467;-57
2022/08/15 13:29:26;;;;;;;5.38;3.88;;;;;;;;;;5052143;28;20072;-57
2022/08/15 13:31:52;;;;;;;5.28;3.30;;;;;;;;;;5052417;28;20021;-57
2022/08/15 13:34:19;;;;;;;7.35;3.72;;;;;;;;;;5052110;28;20057;-58
2022/08/15 13:36:46;;;;;;;7.10;3.85;;;;;;;;;;5052045;28;20060;-57
2022/08/15 13:39:18;;;;;;;3.63;3.30;;;28.00;58.00;;;;;;5052032;28;20040;-58
2022/08/15 13:41:44;;;;;;;5.15;3.53;;;;;;;;;;5052144;28;20212;-58
2022/08/15 13:44:11;;;;;;;6.47;3.60;;;;;;;;;;5052001;28;20100;-58
2022/08/15 13:46:38;;;;;;;4.35;3.90;;;28.00;57.70;;;;;;5051924;28;20112;-58
2022/08/15 13:49:04;;;;;;;3.45;3.15;;;;;;;;;;5052084;28;20087;-58
2022/08/15 13:51:41;;;;;;;6.45;3.95;;;28.00;57.50;;;;;;5051919;28;20032;-58
2022/08/15 13:54:07;;;;;;;3.80;3.10;;;;;;;;;;5034285;28;20100;-58
2022/08/15 13:56:33;;;;;;;7.00;3.70;;;28.10;57.40;;;;;;5051912;28;20056;-58